Time;durP1;ratioP1;P1;durP2;ratioP2;P2;SDS_P1;SDS_P2;PMS_P1;PMS_P2;Temp;Humidity;BMP_temperature;BMP_pressure;BME280_temperature;BME280_humidity;BME280_pressure;Samples;Min_cycle;Max_cycle;Signal;HPM_P1;HPM_P2
2023/01/11 00:00:18;;;;;;;25.98;24.98;;;7.50;98.60;;;;;;5048324;28;20033;-76
2023/01/11 00:02:47;;;;;;;24.38;23.38;;;7.60;98.80;;;;;;5048487;28;20048;-76
2023/01/11 00:05:13;;;;;;;24.17;23.23;;;7.70;98.80;;;;;;5049779;28;20048;-76
2023/01/11 00:07:39;;;;;;;23.80;22.90;;;7.80;98.80;;;;;;5049592;28;20054;-76
2023/01/11 00:10:07;;;;;;;26.35;25.35;;;7.90;98.70;;;;;;5031788;28;20184;-76
2023/01/11 00:12:33;;;;;;;26.20;25.20;;;8.00;98.60;;;;;;5048600;28;20021;-76
2023/01/11 00:14:59;;;;;;;;;;;8.00;98.50;;;;;;5048761;28;20044;-76
2023/01/11 00:17:24;;;;;;;21.63;20.73;;;7.90;98.40;;;;;;5049548;28;19917;-76
2023/01/11 00:19:50;;;;;;;21.15;20.33;;;7.90;98.40;;;;;;5048223;28;20471;-76
2023/01/11 00:22:16;;;;;;;19.55;18.75;;;7.80;98.40;;;;;;5049569;28;20104;-76
2023/01/11 00:24:41;;;;;;;18.17;17.48;;;7.80;98.50;;;;;;5048920;28;20496;-76
2023/01/11 00:27:07;;;;;;;18.60;17.80;;;7.70;98.50;;;;;;5049547;28;20040;-76
2023/01/11 00:29:33;;;;;;;18.25;17.50;;;7.70;98.50;;;;;;5049447;28;20454;-76
2023/01/11 00:31:59;;;;;;;17.88;17.17;;;7.70;98.50;;;;;;5048098;28;20104;-76
2023/01/11 00:34:24;;;;;;;20.00;19.20;;;7.60;98.50;;;;;;5049402;28;20558;-75
2023/01/11 00:36:50;;;;;;;19.75;18.95;;;7.60;98.50;;;;;;5048036;28;20037;-75
2023/01/11 00:39:16;;;;;;;21.27;20.42;;;7.50;98.40;;;;;;5047996;28;20029;-76
2023/01/11 00:50:00;;;;;;;27.25;26.15;;;7.40;98.60;;;;;;5048339;28;20044;-76
2023/01/11 00:52:26;;;;;;;30.38;29.17;;;7.50;98.60;;;;;;5048040;28;20028;-76
2023/01/11 00:54:52;;;;;;;29.35;28.25;;;7.50;98.60;;;;;;5047535;28;20037;-76
2023/01/11 00:57:18;;;;;;;29.55;28.45;;;7.50;98.50;;;;;;5047534;28;20049;-76
2023/01/11 00:59:44;;;;;;;29.88;28.77;;;7.50;98.50;;;;;;5047407;28;20091;-77
2023/01/11 01:02:10;;;;;;;28.13;27.02;;;7.50;98.50;;;;;;5048901;28;20029;-76
2023/01/11 01:04:37;;;;;;;28.17;27.08;;;7.40;98.40;;;;;;5048935;28;20534;-77
2023/01/11 01:07:02;;;;;;;;;;;7.40;98.50;;;;;;5049192;28;20025;-76
2023/01/11 01:09:29;;;;;;;26.27;25.27;;;7.40;98.50;;;;;;5030551;28;19913;-76
2023/01/11 01:11:54;;;;;;;;;;;7.40;98.60;;;;;;5048346;28;20021;-76
2023/01/11 01:14:27;;;;;;;23.45;22.55;;;7.40;98.50;;;;;;5048645;28;20222;-76
2023/01/11 01:17:00;;;;;;;23.52;22.63;;;7.50;98.50;;;;;;5048678;28;20400;-76
2023/01/11 01:19:27;;;;;;;23.00;22.10;;;7.50;98.50;;;;;;5048548;28;20035;-76
2023/01/11 01:21:55;;;;;;;22.33;21.42;;;7.50;98.50;;;;;;5048520;28;20025;-76
2023/01/11 01:24:20;;;;;;;22.27;21.38;;;7.50;98.50;;;;;;5047278;28;20055;-76
2023/01/11 01:26:46;;;;;;;22.63;21.73;;;7.50;98.50;;;;;;5030878;28;20037;-76
2023/01/11 01:29:13;;;;;;;22.50;21.60;;;7.40;98.50;;;;;;5047175;28;20025;-76
2023/01/11 01:31:39;;;;;;;21.90;21.00;;;7.50;98.50;;;;;;5048194;28;20477;-76
2023/01/11 01:34:05;;;;;;;;;;;7.50;98.60;;;;;;5048757;28;20482;-76
2023/01/11 01:36:31;;;;;;;23.35;22.45;;;7.60;98.60;;;;;;5045990;28;19909;-76
2023/01/11 01:39:01;;;;;;;24.38;23.38;;;7.60;98.40;;;;;;5048018;28;20033;-76
2023/01/11 01:41:27;;;;;;;23.00;22.10;;;7.60;98.30;;;;;;5046665;28;20616;-76
2023/01/11 01:43:54;;;;;;;;;;;7.50;98.30;;;;;;5047197;28;20040;-77
2023/01/11 01:46:22;;;;;;;23.83;22.92;;;7.50;98.40;;;;;;5048047;28;20280;-77
2023/01/11 01:48:52;;;;;;;22.13;21.23;;;7.50;98.40;;;;;;5046614;28;20034;-77
2023/01/11 01:51:41;;;;;;;21.77;20.88;;;7.60;98.50;;;;;;5046555;28;20501;-77
2023/01/11 01:54:15;;;;;;;22.83;21.92;;;7.60;98.40;;;;;;5046199;28;20087;-76
2023/01/11 01:56:55;;;;;;;23.50;22.60;;;7.60;98.50;;;;;;5047642;28;20048;-76
2023/01/11 01:59:23;;;;;;;22.75;21.85;;;7.60;98.40;;;;;;5047926;28;20048;-77
2023/01/11 02:01:51;;;;;;;23.40;22.50;;;7.50;98.20;;;;;;5046531;28;20033;-76
2023/01/11 02:04:24;;;;;;;22.77;21.88;;;7.40;98.20;;;;;;5046602;28;20064;-76
2023/01/11 02:06:55;;;;;;;22.73;21.83;;;7.30;98.20;;;;;;5046363;28;20104;-77
2023/01/11 02:09:32;;;;;;;22.33;21.42;;;7.20;98.20;;;;;;5046194;28;20032;-77
2023/01/11 02:11:58;;;;;;;21.10;20.30;;;7.10;98.30;;;;;;5046262;28;20496;-77
2023/01/11 02:14:26;;;;;;;22.25;21.35;;;7.10;98.30;;;;;;5046326;28;20391;-76
2023/01/11 02:16:52;;;;;;;21.83;20.92;;;7.10;98.40;;;;;;5047781;28;20021;-77
2023/01/11 02:19:34;;;;;;;21.63;20.73;;;7.00;98.40;;;;;;5046259;28;20025;-77
2023/01/11 02:22:05;;;;;;;20.85;20.05;;;7.00;98.50;;;;;;5047692;28;20487;-76
2023/01/11 02:24:52;;;;;;;22.48;21.58;;;7.10;98.60;;;;;;5046338;28;20389;-77
2023/01/11 02:27:37;;;;;;;;;;;7.10;98.50;;;;;;5046490;28;20098;-77
2023/01/11 02:30:29;;;;;;;21.95;21.05;;;7.10;98.40;;;;;;5046369;28;20284;-77
2023/01/11 02:33:32;;;;;;;21.63;20.73;;;7.10;98.30;;;;;;5047581;28;20067;-77
2023/01/11 02:36:24;;;;;;;22.48;21.58;;;7.00;98.40;;;;;;5047422;28;20029;-76
2023/01/11 02:39:02;;;;;;;21.98;21.08;;;7.00;98.40;;;;;;5046233;28;20366;-77
2023/01/11 02:45:00;;;;;;;21.40;20.50;;;7.00;98.40;;;;;;5046148;28;20025;-77
2023/01/11 02:47:19;;;;;;;23.10;22.20;;;7.00;98.50;;;;;;5048290;28;20036;-78
2023/01/11 02:50:10;;;;;;;21.55;20.65;;;7.10;98.50;;;;;;5051503;28;20446;-78
2023/01/11 02:52:44;;;;;;;21.85;20.95;;;7.20;98.50;;;;;;5051500;28;20522;-78
2023/01/11 02:55:13;;;;;;;22.85;21.95;;;7.20;98.40;;;;;;5051380;28;20120;-78
2023/01/11 02:57:41;;;;;;;21.55;20.65;;;7.10;98.30;;;;;;5049720;28;20053;-78
2023/01/11 03:00:09;;;;;;;21.58;20.67;;;7.10;98.40;;;;;;5051258;28;20029;-78
2023/01/11 03:02:35;;;;;;;22.23;21.33;;;7.10;98.50;;;;;;5050195;28;20029;-77
2023/01/11 03:05:00;;;;;;;21.65;20.75;;;7.20;98.50;;;;;;5051186;28;20665;-77
2023/01/11 03:08:10;;;;;;;23.92;23.02;;;7.20;98.50;;;;;;5050795;28;20052;-78
2023/01/11 03:10:58;;;;;;;25.00;24.00;;;7.30;98.40;;;;;;5051137;28;20033;-77
2023/01/11 03:13:53;;;;;;;24.88;23.88;;;7.30;98.30;;;;;;5050978;28;20033;-78
2023/01/11 03:16:24;;;;;;;25.02;24.02;;;7.20;98.20;;;;;;5050874;28;20045;-77
2023/01/11 03:19:09;;;;;;;24.55;23.55;;;7.20;98.30;;;;;;5049484;28;20024;-78
2023/01/11 03:21:47;;;;;;;23.23;22.33;;;7.20;98.40;;;;;;5051081;28;20108;-77
2023/01/11 03:24:29;;;;;;;24.55;23.55;;;7.20;98.50;;;;;;5049683;28;20397;-77
2023/01/11 03:27:01;;;;;;;24.40;23.40;;;7.30;98.50;;;;;;5050673;28;20037;-78
2023/01/11 03:29:37;;;;;;;25.70;24.70;;;7.30;98.40;;;;;;5049480;28;20020;-77
2023/01/11 03:32:18;;;;;;;27.13;26.10;;;7.30;98.30;;;;;;5050899;28;20040;-78
2023/01/11 03:34:58;;;;;;;24.88;23.88;;;7.30;98.20;;;;;;5049239;28;21044;-77
2023/01/11 03:37:34;;;;;;;23.10;22.20;;;7.30;98.20;;;;;;5050643;28;20078;-78
2023/01/11 03:40:22;;;;;;;22.25;21.35;;;7.20;98.20;;;;;;5049320;28;20040;-77
2023/01/11 03:43:12;;;;;;;23.27;22.38;;;7.20;98.30;;;;;;5050611;28;20036;-77
2023/01/11 03:46:04;;;;;;;23.63;22.73;;;7.10;98.30;;;;;;5050343;28;20039;-78
2023/01/11 03:48:50;;;;;;;22.48;21.58;;;7.00;98.30;;;;;;5048954;28;20043;-78
2023/01/11 03:51:29;;;;;;;22.38;21.48;;;7.00;98.40;;;;;;5048924;28;20082;-77
2023/01/11 03:54:00;;;;;;;23.08;22.17;;;7.00;98.40;;;;;;5050076;28;20465;-77
2023/01/11 03:56:37;;;;;;;23.52;22.63;;;7.00;98.40;;;;;;5050132;28;20027;-77
2023/01/11 03:59:04;;;;;;;20.65;19.85;;;7.00;98.50;;;;;;5047787;28;20057;-77
2023/01/11 04:01:30;;;;;;;21.40;20.50;;;7.10;98.60;;;;;;5048946;28;20048;-77
2023/01/11 04:03:56;;;;;;;23.52;22.63;;;7.20;98.60;;;;;;5048617;28;20123;-77
2023/01/11 04:06:23;;;;;;;24.15;23.15;;;7.30;98.50;;;;;;5048698;28;20033;-77
2023/01/11 04:08:49;;;;;;;21.70;20.80;;;7.30;98.40;;;;;;5049756;28;20477;-77
2023/01/11 04:11:15;;;;;;;21.58;20.67;;;7.40;98.30;;;;;;5049804;28;20083;-77
2023/01/11 04:13:41;;;;;;;22.50;21.60;;;7.30;98.30;;;;;;5048654;28;20033;-77
2023/01/11 04:16:06;;;;;;;20.92;20.13;;;7.30;98.30;;;;;;5048927;28;20059;-77
2023/01/11 04:18:32;;;;;;;23.40;22.50;;;7.20;98.20;;;;;;5049749;28;20044;-77
2023/01/11 04:20:58;;;;;;;22.00;21.10;;;7.20;98.30;;;;;;5048482;28;20124;-78
2023/01/11 04:23:24;;;;;;;21.77;20.88;;;7.10;98.30;;;;;;5048440;28;20037;-77
2023/01/11 04:25:49;;;;;;;19.50;18.70;;;7.10;98.50;;;;;;5048462;28;20056;-78
2023/01/11 04:28:15;;;;;;;19.80;19.00;;;7.20;98.50;;;;;;5048390;28;20385;-77
2023/01/11 04:30:41;;;;;;;19.20;18.40;;;7.20;98.50;;;;;;5031862;28;20100;-77
2023/01/11 04:33:06;;;;;;;20.65;19.85;;;7.20;98.40;;;;;;5048348;28;20033;-77
2023/01/11 04:35:32;;;;;;;18.67;17.88;;;7.10;98.30;;;;;;5031537;28;20036;-78
2023/01/11 04:37:58;;;;;;;20.23;19.42;;;7.10;98.30;;;;;;5049658;28;20033;-77
2023/01/11 04:40:24;;;;;;;19.17;18.38;;;7.10;98.30;;;;;;5031452;28;20033;-77
2023/01/11 04:42:50;;;;;;;19.65;18.85;;;7.00;98.30;;;;;;5049565;28;20652;-77
2023/01/11 04:45:16;;;;;;;20.73;19.92;;;7.00;98.30;;;;;;5047980;28;20150;-77
2023/01/11 04:47:41;;;;;;;18.65;17.85;;;6.90;98.30;;;;;;5049060;28;20120;-77
2023/01/11 04:50:08;;;;;;;19.33;18.52;;;6.90;98.30;;;;;;5049017;28;20038;-77
2023/01/11 04:52:33;;;;;;;19.65;18.85;;;6.90;98.40;;;;;;5047688;28;20044;-77
2023/01/11 04:54:59;;;;;;;19.67;18.88;;;6.80;98.30;;;;;;5049169;28;20070;-77
2023/01/11 04:57:25;;;;;;;19.98;19.17;;;6.80;98.30;;;;;;5030796;28;20497;-77
2023/01/11 04:59:51;;;;;;;20.65;19.85;;;6.80;98.30;;;;;;5047751;28;20065;-77
2023/01/11 05:02:17;;;;;;;20.90;20.10;;;6.70;98.30;;;;;;5047896;28;20041;-77
2023/01/11 05:04:42;;;;;;;19.90;19.10;;;6.70;98.30;;;;;;5047612;28;20102;-77
2023/01/11 05:07:09;;;;;;;22.13;21.23;;;6.70;98.30;;;;;;5047423;28;20409;-77
2023/01/11 05:09:35;;;;;;;23.02;22.13;;;6.70;98.30;;;;;;5048686;28;20024;-77
2023/01/11 05:12:01;;;;;;;23.45;22.55;;;6.60;98.30;;;;;;5048705;28;20025;-77
2023/01/11 05:14:27;;;;;;;22.10;21.20;;;6.60;98.40;;;;;;5048782;28;20473;-77
2023/01/11 05:16:53;;;;;;;22.70;21.80;;;6.60;98.40;;;;;;5030982;28;20044;-77
2023/01/11 05:19:19;;;;;;;22.58;21.67;;;6.60;98.40;;;;;;5048669;28;20039;-77
2023/01/11 05:21:44;;;;;;;21.40;20.50;;;6.60;98.40;;;;;;5048598;28;20041;-77
2023/01/11 05:24:13;;;;;;;23.27;22.38;;;6.60;98.40;;;;;;5030682;28;20137;-78
2023/01/11 05:26:41;;;;;;;21.10;20.30;;;6.60;98.40;;;;;;5047132;28;20031;-76
2023/01/11 05:29:13;;;;;;;22.13;21.23;;;6.60;98.40;;;;;;5048464;28;20117;-77
2023/01/11 05:31:39;;;;;;;21.58;20.67;;;6.70;98.50;;;;;;5047302;28;20212;-77
2023/01/11 05:34:06;;;;;;;21.05;20.25;;;6.80;98.60;;;;;;5048285;28;20031;-77
2023/01/11 05:36:32;;;;;;;19.23;18.42;;;6.90;98.60;;;;;;5047251;28;20100;-77
2023/01/11 05:38:58;;;;;;;20.42;19.63;;;7.00;98.60;;;;;;5030440;28;20362;-77
2023/01/11 05:41:25;;;;;;;20.75;19.95;;;7.10;98.50;;;;;;5046960;28;20037;-77
2023/01/11 05:46:38;;;;;;;20.95;20.15;;;7.20;98.40;;;;;;5049746;28;20060;-77
2023/01/11 05:49:05;;;;;;;22.60;21.70;;;7.30;98.40;;;;;;5048058;28;20109;-77
2023/01/11 05:51:31;;;;;;;22.60;21.70;;;7.30;98.40;;;;;;5048077;28;20074;-77
2023/01/11 05:53:57;;;;;;;;;;;7.30;98.40;;;;;;5047143;28;20572;-77
2023/01/11 05:56:24;;;;;;;21.83;20.92;;;7.40;98.40;;;;;;5048200;28;19924;-77
2023/01/11 05:58:50;;;;;;;23.40;22.50;;;7.40;98.30;;;;;;5047931;28;20068;-77
2023/01/11 06:01:17;;;;;;;;;;;7.40;98.30;;;;;;5046970;28;20044;-77
2023/01/11 06:03:43;;;;;;;21.80;20.90;;;7.50;98.40;;;;;;5048301;28;19908;-77
2023/01/11 06:06:08;;;;;;;21.35;20.48;;;7.50;98.30;;;;;;5047847;28;20086;-77
2023/01/11 06:08:34;;;;;;;22.52;21.63;;;7.50;98.30;;;;;;5046509;28;20057;-77
2023/01/11 06:11:00;;;;;;;23.30;22.40;;;7.50;98.30;;;;;;5046475;28;20025;-76
2023/01/11 06:13:26;;;;;;;23.83;22.92;;;7.50;98.30;;;;;;5047866;28;20027;-77
2023/01/11 06:16:05;;;;;;;23.15;22.25;;;7.50;98.30;;;;;;5046619;28;20548;-77
2023/01/11 06:18:33;;;;;;;25.00;24.00;;;7.50;98.30;;;;;;5047528;28;20029;-77
2023/01/11 06:21:00;;;;;;;25.63;24.63;;;7.50;98.30;;;;;;5046384;28;20017;-77
2023/01/11 06:23:26;;;;;;;;;;;7.50;98.30;;;;;;5046360;28;20017;-77
2023/01/11 06:25:52;;;;;;;27.25;26.15;;;7.50;98.30;;;;;;5047629;28;19904;-78
2023/01/11 06:28:18;;;;;;;26.15;25.05;;;7.50;98.20;;;;;;5046102;28;20124;-77
2023/01/11 06:30:49;;;;;;;26.67;25.67;;;7.50;98.20;;;;;;5047650;28;20121;-82
2023/01/11 06:33:15;;;;;;;26.38;25.38;;;7.40;98.30;;;;;;5046153;28;20025;-78
2023/01/11 06:35:42;;;;;;;26.17;25.17;;;7.40;98.30;;;;;;5029607;28;20477;-77
2023/01/11 06:38:11;;;;;;;25.63;24.63;;;7.40;98.30;;;;;;5046121;28;20029;-77
2023/01/11 06:40:39;;;;;;;24.30;23.33;;;7.40;98.40;;;;;;5047420;28;20115;-77
2023/01/11 06:43:05;;;;;;;25.10;24.10;;;7.40;98.40;;;;;;5046020;28;20037;-77
2023/01/11 06:45:31;;;;;;;21.90;21.00;;;7.40;98.40;;;;;;5045859;28;20127;-77
2023/01/11 06:47:57;;;;;;;22.20;21.30;;;7.40;98.40;;;;;;5045839;28;20067;-77
2023/01/11 06:50:23;;;;;;;;;;;7.40;98.30;;;;;;5046424;28;20417;-77
2023/01/11 06:52:56;;;;;;;21.17;20.38;;;7.30;98.30;;;;;;5046066;28;20273;-78
2023/01/11 06:55:24;;;;;;;21.75;20.85;;;7.30;98.30;;;;;;5046203;28;20524;-77
2023/01/11 06:57:49;;;;;;;20.15;19.35;;;7.30;98.40;;;;;;5045464;28;20519;-77
2023/01/11 07:00:16;;;;;;;20.25;19.45;;;7.40;98.40;;;;;;5045894;28;20039;-77
2023/01/11 07:02:42;;;;;;;20.58;19.77;;;7.40;98.40;;;;;;5045614;28;20124;-77
2023/01/11 07:05:09;;;;;;;20.80;20.00;;;7.50;98.40;;;;;;5045755;28;20083;-78
2023/01/11 07:07:34;;;;;;;19.48;18.67;;;7.50;98.40;;;;;;5045532;28;20037;-77
2023/01/11 07:10:00;;;;;;;20.90;20.10;;;7.50;98.40;;;;;;5045611;28;20164;-77
2023/01/11 07:12:26;;;;;;;20.63;19.83;;;7.50;98.40;;;;;;5047379;28;20268;-78
2023/01/11 07:14:52;;;;;;;20.20;19.40;;;7.60;98.40;;;;;;5028848;28;20033;-77
2023/01/11 07:17:17;;;;;;;19.77;18.98;;;7.60;98.30;;;;;;5046857;28;20122;-77
2023/01/11 07:19:43;;;;;;;20.20;19.40;;;7.60;98.30;;;;;;5046534;28;20052;-77
2023/01/11 07:22:08;;;;;;;23.45;22.55;;;7.60;98.40;;;;;;5045731;28;20045;-77
2023/01/11 07:24:34;;;;;;;22.40;21.50;;;7.60;98.40;;;;;;5029357;28;20037;-77
2023/01/11 07:27:01;;;;;;;22.98;22.08;;;7.60;98.40;;;;;;5045815;28;20379;-77
2023/01/11 07:29:27;;;;;;;23.20;22.30;;;7.70;98.40;;;;;;5028701;28;20025;-77
2023/01/11 07:31:53;;;;;;;25.45;24.45;;;7.70;98.40;;;;;;5029365;28;20568;-77
2023/01/11 07:34:19;;;;;;;23.17;22.27;;;7.70;98.30;;;;;;5047551;28;20021;-77
2023/01/11 07:36:44;;;;;;;23.80;22.90;;;7.70;98.30;;;;;;5048746;28;20037;-77
2023/01/11 07:39:10;;;;;;;24.50;23.50;;;7.70;98.30;;;;;;5048612;28;20029;-77
2023/01/11 07:44:20;;;;;;;23.00;22.10;;;7.70;98.30;;;;;;5049614;28;20467;-77
2023/01/11 07:46:46;;;;;;;25.50;24.50;;;7.60;98.30;;;;;;5048798;28;20033;-77
2023/01/11 07:49:12;;;;;;;22.88;21.98;;;7.60;98.30;;;;;;5048275;28;20575;-77
2023/01/11 07:51:37;;;;;;;22.30;21.40;;;7.60;98.30;;;;;;5048730;28;20083;-76
2023/01/11 07:54:03;;;;;;;23.42;22.52;;;7.60;98.30;;;;;;5048884;28;20040;-77
2023/01/11 07:56:30;;;;;;;23.83;22.92;;;7.50;98.30;;;;;;5048353;28;20025;-77
2023/01/11 07:58:56;;;;;;;;;;;7.40;98.20;;;;;;5048610;28;20083;-77
2023/01/11 08:01:22;;;;;;;23.60;22.70;;;7.40;98.30;;;;;;5048413;28;19905;-76
2023/01/11 08:03:47;;;;;;;24.20;23.25;;;7.30;98.30;;;;;;5031818;28;20033;-76
2023/01/11 08:06:13;;;;;;;23.73;22.83;;;7.30;98.30;;;;;;5048720;28;20032;-77
2023/01/11 08:08:39;;;;;;;23.50;22.60;;;7.30;98.60;;;;;;5048013;28;20025;-77
2023/01/11 08:16:33;;;;;;;24.95;23.95;;;7.40;98.40;;;;;;5050188;28;20143;-76
2023/01/11 08:19:00;;;;;;;25.48;24.48;;;7.50;98.40;;;;;;5048057;28;20044;-77
2023/01/11 08:21:26;;;;;;;25.58;24.58;;;7.50;98.50;;;;;;5048053;28;20041;-77
2023/01/11 08:23:56;;;;;;;25.73;24.73;;;7.50;98.50;;;;;;5049258;28;20037;-77
2023/01/11 08:26:26;;;;;;;27.42;26.33;;;7.60;98.60;;;;;;5048107;28;20231;-77
2023/01/11 08:28:53;;;;;;;30.23;29.02;;;7.60;98.50;;;;;;5049241;28;20032;-77
2023/01/11 08:31:19;;;;;;;29.42;28.33;;;7.60;98.40;;;;;;5049243;28;20025;-77
2023/01/11 08:33:45;;;;;;;30.98;29.77;;;7.60;98.30;;;;;;5047718;28;20122;-76
2023/01/11 08:36:12;;;;;;;32.67;31.48;;;7.60;98.30;;;;;;5047493;28;20493;-76
2023/01/11 08:38:38;;;;;;;33.13;31.85;;;7.50;98.20;;;;;;5047140;28;20033;-76
2023/01/11 08:41:11;;;;;;;29.60;28.50;;;7.50;98.30;;;;;;5048555;28;20037;-76
2023/01/11 08:43:40;;;;;;;31.48;30.27;;;7.40;98.40;;;;;;5047614;28;20033;-78
2023/01/11 08:46:09;;;;;;;33.88;32.58;;;7.50;98.50;;;;;;5046705;28;20026;-77
2023/01/11 08:48:35;;;;;;;33.70;32.40;;;7.50;98.40;;;;;;5048208;28;20027;-77
2023/01/11 08:51:01;;;;;;;35.30;34.00;;;7.60;98.40;;;;;;5049786;28;20089;-78
2023/01/11 08:53:27;;;;;;;34.58;33.28;;;7.60;98.30;;;;;;5051231;28;20498;-77
2023/01/11 08:55:53;;;;;;;34.95;33.65;;;7.60;98.30;;;;;;5030416;28;20476;-77
2023/01/11 08:58:19;;;;;;;37.72;36.33;;;7.60;98.30;;;;;;5047127;28;20409;-77
2023/01/11 09:00:45;;;;;;;;;;;7.60;98.30;;;;;;5048031;28;20036;-76
2023/01/11 09:03:12;;;;;;;37.60;36.20;;;7.60;98.30;;;;;;5047806;28;19916;-75
2023/01/11 09:05:38;;;;;;;36.17;34.80;;;7.60;98.30;;;;;;5047847;28;20029;-76
2023/01/11 09:08:05;;;;;;;36.50;35.10;;;7.60;98.30;;;;;;5048530;28;20041;-76
2023/01/11 09:10:32;;;;;;;37.53;36.13;;;7.60;98.30;;;;;;5049038;28;20021;-75
2023/01/11 09:12:58;;;;;;;40.92;39.40;;;7.60;98.30;;;;;;5049039;28;20042;-75
2023/01/11 09:15:24;;;;;;;41.67;40.08;;;7.60;98.20;;;;;;5050146;28;20029;-75
2023/01/11 09:17:51;;;;;;;41.38;39.78;;;7.50;98.10;;;;;;5046297;28;20033;-77
2023/01/11 09:20:18;;;;;;;40.25;38.75;;;7.50;98.20;;;;;;5036813;28;20942;-76
2023/01/11 09:22:51;;;;;;;41.30;39.70;;;7.50;98.40;;;;;;5037604;28;20378;-76
2023/01/11 09:25:18;;;;;;;39.40;37.90;;;7.50;98.40;;;;;;5023748;28;20028;-77
2023/01/11 09:27:45;;;;;;;39.83;38.33;;;7.50;98.50;;;;;;5040941;28;20021;-77
2023/01/11 09:30:13;;;;;;;45.80;44.10;;;7.60;98.40;;;;;;5038448;28;20033;-76
2023/01/11 09:32:39;;;;;;;38.65;37.15;;;7.60;98.40;;;;;;5040397;28;20013;-74
2023/01/11 09:35:05;;;;;;;42.90;41.30;;;7.60;98.30;;;;;;5040026;28;20036;-76
2023/01/11 09:37:31;;;;;;;41.60;40.00;;;7.70;98.40;;;;;;5037861;28;20327;-76
2023/01/11 09:40:00;;;;;;;42.22;40.63;;;7.70;98.40;;;;;;5022623;28;20036;-76
2023/01/11 09:42:39;;;;;;;37.20;35.80;;;7.70;98.40;;;;;;5048219;28;20429;-76
2023/01/11 09:45:22;;;;;;;37.03;35.63;;;7.80;98.40;;;;;;5042531;28;20022;-77
2023/01/11 09:48:16;;;;;;;40.75;39.25;;;7.80;98.40;;;;;;5040752;28;20702;-76
2023/01/11 09:50:46;;;;;;;37.80;36.40;;;7.90;98.40;;;;;;5048333;28;20028;-75
2023/01/11 09:53:23;;;;;;;36.70;35.30;;;7.90;98.30;;;;;;5045997;28;20025;-75
2023/01/11 09:55:51;;;;;;;33.83;32.53;;;8.00;98.40;;;;;;5041675;28;20496;-76
2023/01/11 09:58:31;;;;;;;30.92;29.73;;;8.00;98.30;;;;;;5027769;28;20045;-76
2023/01/11 10:01:05;;;;;;;32.50;31.30;;;8.00;98.40;;;;;;5035758;28;20017;-76
2023/01/11 10:04:02;;;;;;;29.30;28.20;;;8.00;98.40;;;;;;5037608;28;20024;-76
2023/01/11 10:06:54;;;;;;;35.13;33.83;;;8.00;98.40;;;;;;5037984;28;20050;-75
2023/01/11 10:09:40;;;;;;;32.88;31.63;;;8.10;98.40;;;;;;5030308;28;20084;-75
2023/01/11 10:12:22;;;;;;;34.47;33.17;;;8.00;98.30;;;;;;5036820;28;20022;-76
2023/01/11 10:15:14;;;;;;;31.17;29.98;;;8.00;98.30;;;;;;5042717;28;20349;-75
2023/01/11 10:18:12;;;;;;;33.70;32.40;;;8.00;98.30;;;;;;5042645;28;20118;-75
2023/01/11 10:20:46;;;;;;;32.65;31.45;;;8.10;98.40;;;;;;5020681;28;20036;-76
2023/01/11 10:23:31;;;;;;;26.20;25.20;;;8.10;98.40;;;;;;5035057;28;20056;-75
2023/01/11 10:26:01;;;;;;;27.25;26.17;;;8.10;98.40;;;;;;5037956;28;20045;-76
2023/01/11 10:28:42;;;;;;;25.00;24.00;;;8.10;98.40;;;;;;5042568;28;20073;-76
2023/01/11 10:31:29;;;;;;;27.40;26.30;;;8.10;98.40;;;;;;5033011;28;20384;-76
2023/01/11 10:37:23;;;;;;;29.55;28.35;;;8.10;98.40;;;;;;5036445;28;20078;-76
2023/01/11 10:43:02;;;;;;;26.60;25.60;;;8.10;98.30;;;;;;5038396;28;20032;-76
2023/01/11 10:45:53;;;;;;;26.98;25.98;;;8.10;98.30;;;;;;5038362;28;20036;-76
2023/01/11 10:48:35;;;;;;;26.90;25.90;;;8.00;98.30;;;;;;5035997;28;20018;-77
2023/01/11 10:51:10;;;;;;;26.15;25.15;;;8.00;98.30;;;;;;5047237;28;20339;-76
2023/01/11 10:54:01;;;;;;;23.02;22.13;;;7.90;98.30;;;;;;5036907;28;20026;-76
2023/01/11 10:56:53;;;;;;;19.38;18.58;;;7.90;98.30;;;;;;5020421;28;20059;-75
2023/01/11 10:59:55;;;;;;;22.65;21.75;;;7.80;98.20;;;;;;5036545;28;20041;-76
2023/01/11 11:02:32;;;;;;;27.25;26.17;;;7.80;98.20;;;;;;5039922;28;20040;-76
2023/01/11 11:05:08;;;;;;;26.73;25.73;;;7.70;98.10;;;;;;5047653;28;20047;-76
2023/01/11 11:08:00;;;;;;;28.57;27.47;;;7.60;98.10;;;;;;5034189;28;20567;-77
2023/01/11 11:10:44;;;;;;;26.52;25.52;;;7.60;98.20;;;;;;5036821;28;20275;-73
2023/01/11 11:13:22;;;;;;;27.80;26.70;;;7.60;98.20;;;;;;5043747;28;20018;-75
2023/01/11 11:16:03;;;;;;;27.20;26.15;;;7.60;98.20;;;;;;5042057;28;20017;-73
2023/01/11 11:18:29;;;;;;;29.85;28.75;;;7.60;98.20;;;;;;5044315;28;20024;-75
2023/01/11 11:21:02;;;;;;;30.90;29.70;;;7.60;98.20;;;;;;5052285;28;20104;-75
2023/01/11 11:23:29;;;;;;;32.42;31.23;;;7.50;98.20;;;;;;5037182;28;20033;-76
2023/01/11 11:25:58;;;;;;;34.35;33.05;;;7.60;98.20;;;;;;5043109;28;20449;-75
2023/01/11 11:28:32;;;;;;;32.15;30.95;;;7.50;98.10;;;;;;5047492;28;20441;-76
2023/01/11 11:31:07;;;;;;;32.47;31.27;;;7.60;98.30;;;;;;5044553;28;20029;-75
2023/01/11 11:33:40;;;;;;;29.80;28.70;;;7.70;98.40;;;;;;5037457;28;20028;-76
2023/01/11 11:36:11;;;;;;;29.90;28.75;;;7.90;98.50;;;;;;5035649;28;20049;-76
2023/01/11 11:38:59;;;;;;;28.80;27.70;;;8.00;98.30;;;;;;5036117;28;20116;-76
2023/01/11 11:41:25;;;;;;;30.92;29.73;;;7.90;98.10;;;;;;5044695;28;20035;-77
2023/01/11 11:43:50;;;;;;;28.95;27.85;;;7.90;98.20;;;;;;5040036;28;20162;-78
2023/01/11 11:46:26;;;;;;;28.42;27.33;;;8.00;98.30;;;;;;5051968;28;20465;-77
2023/01/11 11:49:16;;;;;;;27.42;26.33;;;8.00;98.30;;;;;;5039835;28;20071;-76
2023/01/11 11:51:44;;;;;;;19.98;19.17;;;8.10;98.50;;;;;;5050914;28;20385;-78
2023/01/11 11:54:20;;;;;;;19.25;18.45;;;8.50;99.20;;;;;;5052340;28;20021;-75
2023/01/11 11:56:47;;;;;;;23.60;22.70;;;8.90;99.00;;;;;;5031783;28;20052;-77
2023/01/11 11:59:16;;;;;;;22.33;21.42;;;9.10;98.60;;;;;;5031332;28;20067;-78
2023/01/11 12:01:48;;;;;;;23.67;22.77;;;9.10;98.50;;;;;;5033511;28;20378;-75
2023/01/11 12:04:21;;;;;;;25.75;24.75;;;9.20;98.30;;;;;;5051875;28;20117;-76
2023/01/11 12:07:11;;;;;;;24.45;23.45;;;9.20;98.20;;;;;;5049552;28;20040;-76
2023/01/11 12:09:41;;;;;;;25.95;24.95;;;9.10;98.10;;;;;;5043103;28;20021;-75
2023/01/11 12:12:13;;;;;;;28.27;27.17;;;9.00;98.00;;;;;;5044242;28;20560;-75
2023/01/11 12:14:39;;;;;;;31.25;30.05;;;8.80;98.10;;;;;;5044306;28;20079;-76
2023/01/11 12:17:23;;;;;;;33.80;32.50;;;8.70;98.10;;;;;;5024643;28;20137;-76
2023/01/11 12:19:49;;;;;;;37.05;35.65;;;8.60;98.10;;;;;;5030084;28;20437;-75
2023/01/11 12:22:24;;;;;;;41.17;39.65;;;8.50;98.10;;;;;;5030176;28;20071;-76
2023/01/11 12:25:18;;;;;;;43.05;41.45;;;8.30;98.00;;;;;;5030839;28;20060;-75
2023/01/11 12:28:11;;;;;;;41.08;39.53;;;8.20;98.10;;;;;;5029137;28;20026;-76
2023/01/11 12:31:03;;;;;;;41.80;40.20;;;8.10;98.10;;;;;;5030288;28;20033;-76
2023/01/11 12:33:29;;;;;;;30.92;29.73;;;8.20;98.30;;;;;;5040130;28;20061;-75
2023/01/11 12:36:22;;;;;;;25.67;24.67;;;8.30;98.40;;;;;;5031003;28;20021;-74
2023/01/11 12:39:41;;;;;;;24.80;23.80;;;8.30;98.30;;;;;;5030515;28;20786;-75
2023/01/11 12:42:45;;;;;;;26.73;25.73;;;8.30;98.20;;;;;;4988229;28;20034;-76
2023/01/11 12:46:06;;;;;;;26.08;25.08;;;8.20;98.30;;;;;;5030741;28;20079;-70
2023/01/11 12:48:35;;;;;;;25.20;24.20;;;8.20;98.30;;;;;;5035213;28;20095;-72
2023/01/11 12:51:06;;;;;;;27.95;26.85;;;8.20;98.30;;;;;;5042754;28;20083;-74
2023/01/11 12:53:44;;;;;;;28.17;27.08;;;8.20;98.30;;;;;;5035727;28;20150;-74
2023/01/11 12:56:32;;;;;;;25.92;24.92;;;8.20;98.30;;;;;;5035169;28;20539;-75
2023/01/11 12:59:05;;;;;;;23.00;22.10;;;8.30;98.40;;;;;;5030677;28;20397;-75
2023/01/11 13:01:40;;;;;;;22.35;21.45;;;8.30;98.40;;;;;;5034639;28;21259;-75
2023/01/11 13:04:32;;;;;;;20.13;19.33;;;8.40;98.40;;;;;;5039784;28;20029;-75
2023/01/11 13:07:36;;;;;;;20.20;19.40;;;8.40;98.40;;;;;;5038505;28;20032;-73
2023/01/11 13:10:19;;;;;;;17.30;16.60;;;8.50;98.50;;;;;;5036332;28;20021;-74
2023/01/11 13:13:04;;;;;;;19.40;18.60;;;8.60;98.40;;;;;;5036139;28;20079;-74
2023/01/11 13:16:18;;;;;;;22.95;22.05;;;8.60;98.40;;;;;;5030229;28;20025;-72
2023/01/11 13:18:57;;;;;;;23.98;23.08;;;8.80;98.50;;;;;;4985566;28;20094;-74
2023/01/11 13:21:35;;;;;;;20.75;19.95;;;8.80;98.30;;;;;;5030619;28;20548;-75
2023/01/11 13:24:12;;;;;;;19.27;18.48;;;8.70;98.20;;;;;;5029755;28;20117;-75
2023/01/11 13:26:44;;;;;;;17.27;16.58;;;8.60;98.30;;;;;;5030310;28;20029;-74
2023/01/11 13:29:39;;;;;;;13.50;12.90;;;8.60;98.30;;;;;;5037991;28;20163;-69
2023/01/11 13:32:15;;;;;;;13.20;12.60;;;8.60;98.50;;;;;;5037500;28;20056;-70
2023/01/11 13:34:50;;;;;;;13.65;13.05;;;8.60;98.50;;;;;;5036664;28;20022;-70